Aérodrome :
LOGIN :

S'inscrire | Disclaimer

   EN    FR    IT 

 










Légende :    VFR   VFR Marginal   IFR   IFR Intensif   IFR Très Intensif
Visi : 
Plafond : 
>= 8 km
>= 3000ft
5 à 8 km
1000 à 3000 ft
1500m à 5 km
500 à 1000 ft
800 à 1500m
200 à 500 ft
< 800m
< 200 ft
Symboles :   Orages  Brouillard  Fortes neiges  Fortes précipitations  Vent > 20 kt
SIGMETs :   Divers  Orages  Givrage  Turbulence  Onde Orograph.  Cendres Volcan.







- Altitude de l'aérodrome : 436 ft
- Code IATA : ANG
- Voir les cartes d'approche


LFBU - Angoulême Brie Champniers

DERNIER METAR :
  • 221200Z AUTO 04013KT CAVOK 17/06 Q1027 TEMPO 02015G25KT

METARs EXPIRÉS :
  • 221130Z AUTO 03012KT 360V070 CAVOK 16/07 Q1027 TEMPO 02015G25KT
  • 221100Z AUTO 05016KT CAVOK 16/07 Q1027 BECMG 02015G25KT
  • 221030Z AUTO 03014KT CAVOK 15/07 Q1027 BECMG 02015G25KT
  • 221000Z AUTO 03014KT CAVOK 14/07 Q1027 BECMG 02015G25KT
  • 220930Z AUTO 03011KT CAVOK 13/08 Q1027 BECMG 02015G25KT

TAF TAF LFBU
Valide du 22 à 12h jusqu'au 23 à 12h UTC


221100Z 2212/2312 03015KT CAVOK
TEMPO 2212/2218 02015G25KT
BECMG 2218/2220 BKN012
BECMG 2307/2309 CAVOK
Pas de NOTAMs connus pour ce terrain.



MET'MAP, la Météo Aéronautique d'un coup d'oeil ! - Copyright ORBIFLY Décembre 2007 - Disclaimer

ORBIFLY MET'MAP TEAM :

Programmation & Développement : Alexandra Zaïnal
Conception & Développement : Baudouin d'Aumeries
Co-Programmation & Développement : Marc-Olivier Méhu
Soutien technique & logistique : Manuel Goepfert

Contact : metmap@orbifly.com




SOURCES & CREDITS :

   NOAA